Time;durP1;ratioP1;P1;durP2;ratioP2;P2;SDS_P1;SDS_P2;PMS_P1;PMS_P2;Temp;Humidity;BMP_temperature;BMP_pressure;BME280_temperature;BME280_humidity;BME280_pressure;Samples;Min_cycle;Max_cycle;Signal;HPM_P1;HPM_P2
2024/02/27 00:00:32;;;;;;;;;;;10.00;90.70;;;;;;5017635;28;81862;-60
2024/02/27 00:02:57;;;;;;;;;;;10.00;90.70;;;;;;5020144;28;81209;-60
2024/02/27 00:05:25;;;;;;;;;;;10.00;90.70;;;;;;5020439;28;82557;-60
2024/02/27 00:07:51;;;;;;;;;;;10.00;90.70;;;;;;5018286;28;82624;-56
2024/02/27 00:10:16;;;;;;;;;;;10.00;90.70;;;;;;5021937;28;83566;-60
2024/02/27 00:12:42;;;;;;;;;;;10.00;90.70;;;;;;5013207;28;82566;-60
2024/02/27 00:15:08;;;;;;;;;;;10.00;90.70;;;;;;5017474;28;81916;-60
2024/02/27 00:17:33;;;;;;;;;;;9.90;90.60;;;;;;5018996;28;83839;-60
2024/02/27 00:19:59;;;;;;;;;;;10.00;90.60;;;;;;5014443;28;81943;-60
2024/02/27 00:22:25;;;;;;;;;;;10.00;90.60;;;;;;5015392;28;81984;-60
2024/02/27 00:24:50;;;;;;;;;;;9.90;90.60;;;;;;5016917;28;81911;-58
2024/02/27 00:27:16;;;;;;;;;;;9.90;90.60;;;;;;5018826;28;80941;-60
2024/02/27 00:29:41;;;;;;;;;;;9.90;90.60;;;;;;5020556;28;82520;-60
2024/02/27 00:32:07;;;;;;;;;;;9.90;90.60;;;;;;5015084;28;82066;-60
2024/02/27 00:34:32;;;;;;;;;;;9.90;90.60;;;;;;5012742;28;82770;-60
2024/02/27 00:36:58;;;;;;;;;;;9.90;90.60;;;;;;5012854;28;82515;-60
2024/02/27 00:39:24;;;;;;;;;;;9.90;90.60;;;;;;5020854;28;81927;-60
2024/02/27 00:41:49;;;;;;;;;;;9.90;90.60;;;;;;5018589;28;82180;-60
2024/02/27 00:44:15;;;;;;;;;;;9.90;90.60;;;;;;5017255;28;83607;-60
2024/02/27 00:46:42;;;;;;;;;;;9.90;90.60;;;;;;5023227;28;82128;-60
2024/02/27 00:49:08;;;;;;;;;;;9.90;90.60;;;;;;5022607;28;81935;-60
2024/02/27 00:51:33;;;;;;;;;;;9.90;90.60;;;;;;5019333;28;81301;-60
2024/02/27 00:53:59;;;;;;;;;;;9.90;90.60;;;;;;5018832;28;81920;-60
2024/02/27 00:56:25;;;;;;;;;;;9.80;90.50;;;;;;5019538;28;81793;-61
2024/02/27 00:58:50;;;;;;;;;;;9.80;90.60;;;;;;5016717;28;83598;-57
2024/02/27 01:01:17;;;;;;;;;;;9.80;90.60;;;;;;5022552;28;82575;-60
2024/02/27 01:03:42;;;;;;;;;;;9.80;90.60;;;;;;5020714;28;82626;-60
2024/02/27 01:06:08;;;;;;;;;;;9.80;90.60;;;;;;5020865;28;82001;-60
2024/02/27 01:08:34;;;;;;;;;;;9.80;90.50;;;;;;5015119;28;82099;-60
2024/02/27 01:10:59;;;;;;;;;;;9.80;90.60;;;;;;5018164;28;81918;-60
2024/02/27 01:13:25;;;;;;;;;;;9.80;90.60;;;;;;5015537;28;81916;-60
2024/02/27 01:15:50;;;;;;;;;;;9.80;90.60;;;;;;5014367;28;81736;-56
2024/02/27 01:18:16;;;;;;;;;;;9.80;90.60;;;;;;5015823;28;81839;-60
2024/02/27 01:20:41;;;;;;;;;;;9.80;90.50;;;;;;5019185;28;81880;-60
2024/02/27 01:23:07;;;;;;;;;;;9.80;90.50;;;;;;5018878;28;83559;-60
2024/02/27 01:25:32;;;;;;;;;;;9.80;90.50;;;;;;5018313;28;81985;-60
2024/02/27 01:27:58;;;;;;;;;;;9.70;90.50;;;;;;5019550;28;81986;-60
2024/02/27 01:30:23;;;;;;;;;;;9.70;90.50;;;;;;5023853;28;82538;-60
2024/02/27 01:32:49;;;;;;;;;;;9.80;90.50;;;;;;5023046;28;83398;-60
2024/02/27 01:35:18;;;;;;;;;;;9.70;90.50;;;;;;5020102;28;82661;-60
2024/02/27 01:37:44;;;;;;;;;;;9.70;90.50;;;;;;5017483;28;81931;-60
2024/02/27 01:40:10;;;;;;;;;;;9.70;90.50;;;;;;5021082;28;82085;-60
2024/02/27 01:42:36;;;;;;;;;;;9.70;90.50;;;;;;5021072;28;82265;-60
2024/02/27 01:45:02;;;;;;;;;;;9.70;90.50;;;;;;5017052;28;82201;-60
2024/02/27 01:47:28;;;;;;;;;;;9.70;90.50;;;;;;5015398;28;83766;-60
2024/02/27 01:49:54;;;;;;;;;;;9.70;90.50;;;;;;5018308;28;83019;-60
2024/02/27 01:52:20;;;;;;;;;;;9.60;90.60;;;;;;5021702;28;82027;-60
2024/02/27 01:54:46;;;;;;;;;;;9.70;90.60;;;;;;5015838;28;84300;-60
2024/02/27 01:57:13;;;;;;;;;;;9.70;90.60;;;;;;5017117;28;82142;-60
2024/02/27 01:59:40;;;;;;;;;;;9.60;90.50;;;;;;5023666;28;81975;-60
2024/02/27 02:02:06;;;;;;;;;;;9.60;90.50;;;;;;5019967;28;82523;-60
2024/02/27 02:04:32;;;;;;;;;;;9.70;90.50;;;;;;5027349;28;81306;-60
2024/02/27 02:06:59;;;;;;;;;;;9.70;90.50;;;;;;5024167;28;81973;-59
2024/02/27 02:09:24;;;;;;;;;;;9.60;90.50;;;;;;5020770;28;83237;-60
2024/02/27 02:11:50;;;;;;;;;;;9.60;90.50;;;;;;5017969;28;83017;-60
2024/02/27 02:14:15;;;;;;;;;;;9.60;90.50;;;;;;5022664;28;83783;-60
2024/02/27 02:16:41;;;;;;;;;;;9.60;90.50;;;;;;5019897;28;82517;-60
2024/02/27 02:19:07;;;;;;;;;;;9.60;90.50;;;;;;5017044;28;81939;-60
2024/02/27 02:21:33;;;;;;;;;;;9.60;90.50;;;;;;5018242;28;82454;-60
2024/02/27 02:23:59;;;;;;;;;;;9.60;90.50;;;;;;5018519;28;81937;-60
2024/02/27 02:26:27;;;;;;;;;;;9.60;90.50;;;;;;5019311;28;81824;-60
2024/02/27 02:28:53;;;;;;;;;;;9.60;90.50;;;;;;5021926;28;82059;-60
2024/02/27 02:31:18;;;;;;;;;;;9.60;90.50;;;;;;5018416;28;81897;-60
2024/02/27 02:33:44;;;;;;;;;;;9.60;90.60;;;;;;5026631;28;82074;-60
2024/02/27 02:36:09;;;;;;;;;;;9.50;90.60;;;;;;5019483;28;82901;-60
2024/02/27 02:38:35;;;;;;;;;;;9.50;90.60;;;;;;5022629;28;81969;-60
2024/02/27 02:41:01;;;;;;;;;;;9.50;90.50;;;;;;5017128;28;82609;-60
2024/02/27 02:43:26;;;;;;;;;;;9.50;90.60;;;;;;5014163;28;82568;-60
2024/02/27 02:45:52;;;;;;;;;;;9.50;90.60;;;;;;5019335;28;82911;-59
2024/02/27 02:48:17;;;;;;;;;;;9.50;90.60;;;;;;5016896;28;82476;-60
2024/02/27 02:50:43;;;;;;;;;;;9.50;90.60;;;;;;5016447;28;81981;-60
2024/02/27 02:53:08;;;;;;;;;;;9.50;90.60;;;;;;5019298;28;82027;-60
2024/02/27 02:55:34;;;;;;;;;;;9.50;90.60;;;;;;5018711;28;82434;-60
2024/02/27 02:57:59;;;;;;;;;;;9.50;90.60;;;;;;5021030;28;81841;-60
2024/02/27 03:00:25;;;;;;;;;;;9.50;90.60;;;;;;5019180;28;83496;-59
2024/02/27 03:02:51;;;;;;;;;;;9.50;90.60;;;;;;5027255;28;81953;-60
2024/02/27 03:05:16;;;;;;;;;;;9.50;90.60;;;;;;5028243;28;82802;-60
2024/02/27 03:07:42;;;;;;;;;;;9.40;90.60;;;;;;5016320;28;83340;-60
2024/02/27 03:10:11;;;;;;;;;;;9.40;90.60;;;;;;5014242;28;82029;-60
2024/02/27 03:12:42;;;;;;;;;;;9.40;90.60;;;;;;5016874;28;82969;-60
2024/02/27 03:15:08;;;;;;;;;;;9.40;90.60;;;;;;5015174;28;83081;-60
2024/02/27 03:17:34;;;;;;;;;;;9.40;90.60;;;;;;5020694;28;81301;-60
2024/02/27 03:20:00;;;;;;;;;;;9.40;90.60;;;;;;5016406;28;82369;-60
2024/02/27 03:22:25;;;;;;;;;;;9.40;90.60;;;;;;5018239;28;82010;-60
2024/02/27 03:24:51;;;;;;;;;;;9.40;90.60;;;;;;5013019;28;83600;-57
2024/02/27 03:27:16;;;;;;;;;;;9.40;90.60;;;;;;5020808;28;82869;-59
2024/02/27 03:29:42;;;;;;;;;;;9.40;90.60;;;;;;5017006;28;82057;-60
2024/02/27 03:32:08;;;;;;;;;;;9.40;90.60;;;;;;5019977;28;82213;-60
2024/02/27 03:34:33;;;;;;;;;;;9.40;90.60;;;;;;5015819;28;82514;-60
2024/02/27 03:36:59;;;;;;;;;;;9.40;90.60;;;;;;5014263;28;82104;-60
2024/02/27 03:39:25;;;;;;;;;;;9.30;90.60;;;;;;5018034;28;81971;-60
2024/02/27 03:41:50;;;;;;;;;;;9.30;90.60;;;;;;5015412;28;81583;-60
2024/02/27 03:44:16;;;;;;;;;;;9.30;90.60;;;;;;5019913;28;81941;-60
2024/02/27 03:46:41;;;;;;;;;;;9.30;90.60;;;;;;5017491;28;82170;-60
2024/02/27 03:49:07;;;;;;;;;;;9.30;90.60;;;;;;5017055;28;84487;-60
2024/02/27 03:51:32;;;;;;;;;;;9.30;90.60;;;;;;5018365;28;82860;-60
2024/02/27 03:53:58;;;;;;;;;;;9.30;90.60;;;;;;5018934;28;81993;-60
2024/02/27 03:56:24;;;;;;;;;;;9.30;90.60;;;;;;5020735;28;81900;-59
2024/02/27 03:58:50;;;;;;;;;;;9.30;90.60;;;;;;5018128;28;83437;-60
2024/02/27 04:01:15;;;;;;;;;;;9.30;90.60;;;;;;5021217;28;81925;-60
2024/02/27 04:03:41;;;;;;;;;;;9.30;90.70;;;;;;5017112;28;81991;-60
2024/02/27 04:06:07;;;;;;;;;;;9.30;90.70;;;;;;5020770;28;81649;-60
2024/02/27 04:08:32;;;;;;;;;;;9.30;90.60;;;;;;5019073;28;81878;-56
2024/02/27 04:10:58;;;;;;;;;;;9.30;90.60;;;;;;5018922;28;82046;-60
2024/02/27 04:13:24;;;;;;;;;;;9.30;90.60;;;;;;5019444;28;82848;-60
2024/02/27 04:15:50;;;;;;;;;;;9.30;90.60;;;;;;5020855;28;81923;-60
2024/02/27 04:18:15;;;;;;;;;;;9.30;90.60;;;;;;5021732;28;81941;-60
2024/02/27 04:20:43;;;;;;;;;;;9.30;90.60;;;;;;5019379;28;82231;-60
2024/02/27 04:23:09;;;;;;;;;;;9.30;90.50;;;;;;5027198;28;81776;-58
2024/02/27 04:25:35;;;;;;;;;;;9.30;90.60;;;;;;5020852;28;82876;-60
2024/02/27 04:28:00;;;;;;;;;;;9.30;90.60;;;;;;5021603;28;82043;-60
2024/02/27 04:30:26;;;;;;;;;;;9.30;90.60;;;;;;5026315;28;81722;-60
2024/02/27 04:32:51;;;;;;;;;;;9.20;90.60;;;;;;5024911;28;82583;-57
2024/02/27 04:35:17;;;;;;;;;;;9.20;90.60;;;;;;5021577;28;82089;-58
2024/02/27 04:37:42;;;;;;;;;;;9.20;90.60;;;;;;5015475;28;82765;-60
2024/02/27 04:40:09;;;;;;;;;;;9.20;90.60;;;;;;5023743;28;82849;-60
2024/02/27 04:42:34;;;;;;;;;;;9.20;90.60;;;;;;5024368;28;81903;-60
2024/02/27 04:45:00;;;;;;;;;;;9.20;90.60;;;;;;5017451;28;82508;-60
2024/02/27 04:47:26;;;;;;;;;;;9.20;90.50;;;;;;5016464;28;82044;-60
2024/02/27 04:49:51;;;;;;;;;;;9.20;90.60;;;;;;5017080;28;82676;-57
2024/02/27 04:52:17;;;;;;;;;;;9.20;90.60;;;;;;5021512;28;82745;-60
2024/02/27 04:54:43;;;;;;;;;;;9.10;90.60;;;;;;5024420;28;81189;-60
2024/02/27 04:57:08;;;;;;;;;;;9.20;90.50;;;;;;5021841;28;81964;-60
2024/02/27 04:59:34;;;;;;;;;;;9.20;90.60;;;;;;5018019;28;83295;-60
2024/02/27 05:01:59;;;;;;;;;;;9.20;90.50;;;;;;5020603;28;82984;-60
2024/02/27 05:04:25;;;;;;;;;;;9.10;90.50;;;;;;5020973;28;82631;-59
2024/02/27 05:06:51;;;;;;;;;;;9.10;90.50;;;;;;5021182;28;82697;-60
2024/02/27 05:09:16;;;;;;;;;;;9.10;90.50;;;;;;5019645;28;82452;-60
2024/02/27 05:11:44;;;;;;;;;;;9.10;90.60;;;;;;5015732;28;82459;-59
2024/02/27 05:14:10;;;;;;;;;;;9.10;90.50;;;;;;5016729;28;82023;-59
2024/02/27 05:16:37;;;;;;;;;;;9.10;90.50;;;;;;5017870;28;81875;-59
2024/02/27 05:19:03;;;;;;;;;;;9.10;90.50;;;;;;5021005;28;82064;-60
2024/02/27 05:21:28;;;;;;;;;;;9.10;90.50;;;;;;5021032;28;81962;-59
2024/02/27 05:23:54;;;;;;;;;;;9.10;90.50;;;;;;5018329;28;82551;-59
2024/02/27 05:26:20;;;;;;;;;;;9.10;90.50;;;;;;5021715;28;83393;-59
2024/02/27 05:28:45;;;;;;;;;;;9.10;90.50;;;;;;5019496;28;82889;-58
2024/02/27 05:31:24;;;;;;;;;;;9.00;90.50;;;;;;5022587;28;82619;-59
2024/02/27 05:33:50;;;;;;;;;;;9.10;90.50;;;;;;5016671;28;81932;-60
2024/02/27 05:36:15;;;;;;;;;;;9.00;90.50;;;;;;5022525;28;81912;-59
2024/02/27 05:38:44;;;;;;;;;;;9.10;90.60;;;;;;5016033;28;82414;-59
2024/02/27 05:41:11;;;;;;;;;;;9.10;90.50;;;;;;5012496;28;82693;-60
2024/02/27 05:43:36;;;;;;;;;;;9.00;90.50;;;;;;5021253;28;82018;-59
2024/02/27 05:46:05;;;;;;;;;;;9.00;90.50;;;;;;5019561;28;82250;-59
2024/02/27 05:48:33;;;;;;;;;;;9.00;90.50;;;;;;5018323;28;82000;-58
2024/02/27 05:50:59;;;;;;;;;;;9.00;90.50;;;;;;5015625;28;84518;-58
2024/02/27 05:53:24;;;;;;;;;;;9.00;90.50;;;;;;5024439;28;81739;-59
2024/02/27 05:55:50;;;;;;;;;;;9.00;90.50;;;;;;5020057;28;82128;-60
2024/02/27 05:58:16;;;;;;;;;;;9.00;90.50;;;;;;5013833;28;81931;-59
2024/02/27 06:00:41;;;;;;;;;;;9.00;90.40;;;;;;5020531;28;82763;-60
2024/02/27 06:03:08;;;;;;;;;;;9.00;90.40;;;;;;5020239;28;82660;-58
2024/02/27 06:05:34;;;;;;;;;;;9.00;90.40;;;;;;5015988;28;82423;-59
2024/02/27 06:08:00;;;;;;;;;;;9.00;90.40;;;;;;5019635;28;81179;-59
2024/02/27 06:10:26;;;;;;;;;;;9.00;90.40;;;;;;5021201;28;82881;-59
2024/02/27 06:12:51;;;;;;;;;;;9.00;90.40;;;;;;5016707;28;82242;-60
2024/02/27 06:15:17;;;;;;;;;;;9.00;90.40;;;;;;5018021;28;83025;-59
2024/02/27 06:17:42;;;;;;;;;;;9.00;90.40;;;;;;5019985;28;82553;-59
2024/02/27 06:22:10;;;;;;;;;;;9.00;90.40;;;;;;5016605;28;83589;-60
2024/02/27 06:22:53;;;;;;;;;;;9.00;90.40;;;;;;5016855;27;82377;-59
2024/02/27 06:25:19;;;;;;;;;;;9.00;90.30;;;;;;5020591;28;82704;-59
2024/02/27 06:27:48;;;;;;;;;;;9.00;90.40;;;;;;5023605;28;82545;-57
2024/02/27 06:30:16;;;;;;;;;;;9.00;90.40;;;;;;5018315;28;81911;-60
2024/02/27 06:32:42;;;;;;;;;;;9.00;90.40;;;;;;5022490;28;82145;-59
2024/02/27 06:35:11;;;;;;;;;;;8.90;90.50;;;;;;5017758;28;81993;-59
2024/02/27 06:37:36;;;;;;;;;;;9.00;90.40;;;;;;5013694;28;82716;-59
2024/02/27 06:40:03;;;;;;;;;;;9.00;90.40;;;;;;5014944;28;83063;-59
2024/02/27 06:42:35;;;;;;;;;;;9.00;90.30;;;;;;5015753;28;81868;-59
2024/02/27 06:45:02;;;;;;;;;;;9.00;90.30;;;;;;5018221;28;82800;-59
2024/02/27 06:47:28;;;;;;;;;;;9.00;90.30;;;;;;5015302;28;83727;-59
2024/02/27 06:49:56;;;;;;;;;;;9.00;90.40;;;;;;5014914;28;81996;-59
2024/02/27 06:52:22;;;;;;;;;;;9.00;90.40;;;;;;5016620;28;83129;-56
2024/02/27 06:54:48;;;;;;;;;;;8.90;90.40;;;;;;5050650;27;82946;-60
2024/02/27 06:57:14;;;;;;;;;;;9.00;90.40;;;;;;5020906;28;81834;-59
2024/02/27 06:59:39;;;;;;;;;;;9.00;90.30;;;;;;5018998;28;82124;-59
2024/02/27 07:02:06;;;;;;;;;;;9.00;90.30;;;;;;5016517;28;82150;-60
2024/02/27 07:04:32;;;;;;;;;;;9.00;90.30;;;;;;5013311;28;83713;-57
2024/02/27 07:06:58;;;;;;;;;;;9.00;90.30;;;;;;5015493;28;82006;-59
2024/02/27 07:09:24;;;;;;;;;;;9.00;90.30;;;;;;5017328;28;82338;-59
2024/02/27 07:12:09;;;;;;;;;;;8.90;90.40;;;;;;5014100;28;83714;-59
2024/02/27 07:14:39;;;;;;;;;;;8.90;90.40;;;;;;5017740;28;82012;-60
2024/02/27 07:17:04;;;;;;;;;;;8.90;90.40;;;;;;5019263;28;83335;-60
2024/02/27 07:19:30;;;;;;;;;;;8.90;90.30;;;;;;5018016;28;82974;-60
2024/02/27 07:21:55;;;;;;;;;;;8.90;90.40;;;;;;5019149;28;82166;-61
2024/02/27 07:24:21;;;;;;;;;;;8.90;90.50;;;;;;5019054;28;83733;-59
2024/02/27 07:26:47;;;;;;;;;;;8.90;90.40;;;;;;5014255;28;82036;-60
2024/02/27 07:29:15;;;;;;;;;;;8.90;90.40;;;;;;5011924;28;82944;-59
2024/02/27 07:31:41;;;;;;;;;;;9.00;90.40;;;;;;5013638;28;82306;-58
2024/02/27 07:34:06;;;;;;;;;;;9.00;90.50;;;;;;5016695;28;83645;-60
2024/02/27 07:36:32;;;;;;;;;;;8.90;90.50;;;;;;5021385;28;82668;-60
2024/02/27 07:38:58;;;;;;;;;;;8.90;90.50;;;;;;5017355;28;83427;-59
2024/02/27 07:41:24;;;;;;;;;;;8.90;90.40;;;;;;5018069;28;82671;-59
2024/02/27 07:43:49;;;;;;;;;;;9.00;90.40;;;;;;5014868;28;89477;-60
2024/02/27 07:46:15;;;;;;;;;;;9.00;90.40;;;;;;5017490;28;86678;-60
2024/02/27 07:48:43;;;;;;;;;;;8.90;90.40;;;;;;5013362;28;87133;-60
2024/02/27 07:51:24;;;;;;;;;;;9.00;90.50;;;;;;5015784;28;87482;-59
2024/02/27 07:53:50;;;;;;;;;;;9.00;90.40;;;;;;5011803;28;88102;-60
2024/02/27 07:56:15;;;;;;;;;;;9.00;90.40;;;;;;5022756;28;87615;-60
2024/02/27 07:58:41;;;;;;;;;;;9.00;90.40;;;;;;5014416;28;87755;-58
2024/02/27 08:01:06;;;;;;;;;;;9.00;90.30;;;;;;5015169;28;87081;-60
2024/02/27 08:03:32;;;;;;;;;;;9.00;90.30;;;;;;5012800;28;87735;-60
2024/02/27 08:05:57;;;;;;;;;;;9.00;90.30;;;;;;5015757;28;87785;-60
2024/02/27 08:08:23;;;;;;;;;;;9.00;90.30;;;;;;5014672;28;87535;-58
2024/02/27 08:10:48;;;;;;;;;;;9.00;90.30;;;;;;5015185;28;86999;-59
2024/02/27 08:13:14;;;;;;;;;;;9.10;90.30;;;;;;5018048;28;87051;-59
2024/02/27 08:15:39;;;;;;;;;;;9.10;90.30;;;;;;5015374;28;86955;-59
2024/02/27 08:18:05;;;;;;;;;;;9.10;90.30;;;;;;5018978;28;87914;-60
2024/02/27 08:20:31;;;;;;;;;;;9.10;90.30;;;;;;5017008;28;87328;-59
2024/02/27 08:22:57;;;;;;;;;;;9.00;90.20;;;;;;5021191;28;87743;-60
2024/02/27 08:25:23;;;;;;;;;;;9.10;90.20;;;;;;5016740;28;87057;-56
2024/02/27 08:27:48;;;;;;;;;;;9.10;90.20;;;;;;5013564;28;86986;-59
2024/02/27 08:30:14;;;;;;;;;;;9.00;90.20;;;;;;5014498;28;87110;-59
2024/02/27 08:32:40;;;;;;;;;;;9.10;90.20;;;;;;5015371;28;86886;-59
2024/02/27 08:35:06;;;;;;;;;;;9.10;90.20;;;;;;5015116;28;88041;-59
2024/02/27 08:37:32;;;;;;;;;;;9.10;90.20;;;;;;5010990;28;87450;-59
2024/02/27 08:39:58;;;;;;;;;;;9.10;90.20;;;;;;5017628;28;87733;-59
2024/02/27 08:42:24;;;;;;;;;;;9.10;90.20;;;;;;5021762;28;87809;-59
2024/02/27 08:44:50;;;;;;;;;;;9.10;90.20;;;;;;5016909;28;87000;-59
2024/02/27 08:47:15;;;;;;;;;;;9.00;90.20;;;;;;5016051;28;87125;-59
2024/02/27 08:49:43;;;;;;;;;;;9.00;90.20;;;;;;5013692;28;87763;-60
2024/02/27 08:52:09;;;;;;;;;;;9.00;90.20;;;;;;5012956;28;87133;-59
2024/02/27 08:54:35;;;;;;;;;;;9.10;90.20;;;;;;5012824;28;87306;-60
2024/02/27 08:57:00;;;;;;;;;;;9.00;90.20;;;;;;5011443;28;87362;-60
2024/02/27 08:59:26;;;;;;;;;;;9.00;90.20;;;;;;5017326;28;86293;-59
2024/02/27 09:01:51;;;;;;;;;;;9.10;90.30;;;;;;5022414;28;86892;-59
2024/02/27 09:04:17;;;;;;;;;;;9.00;90.30;;;;;;5021180;28;87009;-59
2024/02/27 09:06:42;;;;;;;;;;;9.10;90.30;;;;;;5014619;28;88016;-59
2024/02/27 09:09:08;;;;;;;;;;;9.10;90.30;;;;;;5015129;28;87424;-59
2024/02/27 09:11:34;;;;;;;;;;;9.10;90.30;;;;;;5017549;28;86882;-59
2024/02/27 09:13:59;;;;;;;;;;;9.10;90.40;;;;;;5010095;28;87802;-59
2024/02/27 09:16:25;;;;;;;;;;;9.10;90.40;;;;;;5019166;28;87568;-60
2024/02/27 09:18:50;;;;;;;;;;;9.10;90.30;;;;;;5010400;28;86915;-60
2024/02/27 09:21:16;;;;;;;;;;;9.10;90.40;;;;;;5018437;28;87019;-60
2024/02/27 09:23:41;;;;;;;;;;;9.10;90.40;;;;;;5020792;28;88123;-56
2024/02/27 09:26:07;;;;;;;;;;;9.10;90.40;;;;;;5015224;28;87892;-59
2024/02/27 09:28:33;;;;;;;;;;;9.10;90.50;;;;;;5015144;28;89304;-60
2024/02/27 09:31:02;;;;;;;;;;;9.10;90.50;;;;;;5014241;28;88529;-60
2024/02/27 09:33:28;;;;;;;;;;;9.20;90.40;;;;;;5014310;28;87804;-60
2024/02/27 09:35:54;;;;;;;;;;;9.20;90.40;;;;;;5012508;28;87044;-60
2024/02/27 09:38:19;;;;;;;;;;;9.20;90.40;;;;;;5016727;28;87352;-60
2024/02/27 09:40:45;;;;;;;;;;;9.20;90.50;;;;;;5014425;28;86986;-59
2024/02/27 09:43:21;;;;;;;;;;;9.20;90.50;;;;;;5013338;28;88302;-58
2024/02/27 09:45:47;;;;;;;;;;;9.20;90.60;;;;;;5020285;28;87088;-60
2024/02/27 09:48:16;;;;;;;;;;;9.20;90.60;;;;;;5020211;28;86524;-60
2024/02/27 09:50:42;;;;;;;;;;;9.20;90.50;;;;;;5016363;28;87158;-60
2024/02/27 09:53:08;;;;;;;;;;;9.20;90.60;;;;;;5015659;28;87761;-60
2024/02/27 09:55:34;;;;;;;;;;;9.20;90.70;;;;;;5012388;28;88660;-60
2024/02/27 09:58:01;;;;;;;;;;;9.30;90.80;;;;;;5014225;28;87493;-60
2024/02/27 10:00:27;;;;;;;;;;;9.20;90.70;;;;;;5014889;28;87045;-60
2024/02/27 10:02:53;;;;;;;;;;;9.30;90.80;;;;;;5010933;28;87454;-56
2024/02/27 10:05:20;;;;;;;;;;;9.30;90.80;;;;;;5014898;28;87055;-60
2024/02/27 10:07:48;;;;;;;;;;;9.30;90.80;;;;;;5020131;28;86994;-60
2024/02/27 10:10:13;;;;;;;;;;;9.30;90.90;;;;;;5012084;28;87825;-60
2024/02/27 10:12:39;;;;;;;;;;;9.30;90.80;;;;;;5013481;28;87372;-60
2024/02/27 10:15:05;;;;;;;;;;;9.30;90.90;;;;;;5011404;28;87406;-60
2024/02/27 10:17:32;;;;;;;;;;;9.30;90.80;;;;;;5014234;28;87016;-59
2024/02/27 10:20:04;;;;;;;;;;;9.30;90.90;;;;;;5011212;28;88029;-60
2024/02/27 10:22:31;;;;;;;;;;;9.40;91.00;;;;;;5013575;28;87667;-60
2024/02/27 10:25:06;;;;;;;;;;;9.40;91.00;;;;;;5013395;28;86786;-60
2024/02/27 10:27:33;;;;;;;;;;;9.40;90.90;;;;;;5012711;28;88176;-62
2024/02/27 10:29:59;;;;;;;;;;;9.40;90.80;;;;;;5015740;28;87429;-60
2024/02/27 10:32:24;;;;;;;;;;;9.40;90.80;;;;;;5010147;28;87020;-60
2024/02/27 10:34:53;;;;;;;;;;;9.40;90.90;;;;;;5013491;28;87681;-60
2024/02/27 10:37:20;;;;;;;;;;;9.40;90.90;;;;;;5014674;28;86250;-61
2024/02/27 10:39:47;;;;;;;;;;;9.50;90.90;;;;;;5018864;28;88765;-60
2024/02/27 10:42:12;;;;;;;;;;;9.40;90.90;;;;;;5010994;28;87331;-61
2024/02/27 10:44:38;;;;;;;;;;;9.50;90.80;;;;;;5015184;28;88045;-60
2024/02/27 10:47:05;;;;;;;;;;;9.50;90.80;;;;;;5011475;28;87887;-60
2024/02/27 10:49:30;;;;;;;;;;;9.50;90.80;;;;;;5011569;28;87828;-58
2024/02/27 10:51:57;;;;;;;;;;;9.50;90.80;;;;;;5016068;28;87097;-60
2024/02/27 10:54:23;;;;;;;;;;;9.50;90.90;;;;;;5013730;28;87419;-59
2024/02/27 10:56:49;;;;;;;;;;;9.50;90.80;;;;;;5012452;28;87021;-60
2024/02/27 10:59:15;;;;;;;;;;;9.50;90.90;;;;;;5010416;28;87494;-61
2024/02/27 11:01:41;;;;;;;;;;;9.60;91.00;;;;;;5014296;28;87085;-60
2024/02/27 11:04:09;;;;;;;;;;;9.60;91.00;;;;;;5013276;28;86979;-61
2024/02/27 11:06:37;;;;;;;;;;;9.60;90.90;;;;;;5014314;28;87069;-60
2024/02/27 11:09:07;;;;;;;;;;;9.60;90.90;;;;;;5008754;28;88657;-60
2024/02/27 11:11:35;;;;;;;;;;;9.60;90.90;;;;;;5018413;28;87082;-60
2024/02/27 11:14:04;;;;;;;;;;;9.60;90.80;;;;;;5016161;28;87563;-60
2024/02/27 11:16:30;;;;;;;;;;;9.60;91.10;;;;;;5018928;28;87023;-60
2024/02/27 11:18:59;;;;;;;;;;;9.70;90.90;;;;;;5012167;28;87136;-60
2024/02/27 11:21:26;;;;;;;;;;;9.70;90.90;;;;;;5012831;28;87512;-60
2024/02/27 11:23:51;;;;;;;;;;;9.70;91.00;;;;;;5013286;28;87050;-60
2024/02/27 11:26:17;;;;;;;;;;;9.70;90.90;;;;;;5011612;28;87845;-59
2024/02/27 11:28:43;;;;;;;;;;;9.70;90.90;;;;;;5009026;28;87715;-60
2024/02/27 11:31:10;;;;;;;;;;;9.70;90.90;;;;;;5012841;28;87881;-60
2024/02/27 11:33:46;;;;;;;;;;;9.80;90.90;;;;;;5016419;28;88045;-60
2024/02/27 11:36:11;;;;;;;;;;;9.80;90.90;;;;;;5012728;28;87153;-61
2024/02/27 11:38:37;;;;;;;;;;;9.80;90.70;;;;;;5008521;28;87645;-60
2024/02/27 11:41:03;;;;;;;;;;;9.80;90.70;;;;;;5010953;28;87833;-60
2024/02/27 11:43:29;;;;;;;;;;;9.80;90.90;;;;;;5016976;28;86988;-60
2024/02/27 11:45:59;;;;;;;;;;;9.90;90.90;;;;;;5012711;28;87032;-60
2024/02/27 11:48:45;;;;;;;;;;;9.90;91.00;;;;;;5013395;28;88540;-57
2024/02/27 11:51:11;;;;;;;;;;;9.90;90.60;;;;;;5021192;28;86902;-60
2024/02/27 11:53:37;;;;;;;;;;;9.90;90.70;;;;;;5012574;28;86851;-60
2024/02/27 11:56:03;;;;;;;;;;;10.00;90.70;;;;;;5011558;28;88027;-60
2024/02/27 11:58:28;;;;;;;;;;;10.00;90.90;;;;;;5012497;28;87974;-62
2024/02/27 12:00:54;;;;;;;;;;;10.00;90.80;;;;;;5011190;28;87566;-57
2024/02/27 12:03:19;;;;;;;;;;;10.00;91.00;;;;;;5012686;28;87043;-60
2024/02/27 12:05:49;;;;;;;;;;;10.00;91.00;;;;;;5013360;28;87972;-60
2024/02/27 12:08:16;;;;;;;;;;;10.00;90.70;;;;;;5007899;28;86994;-60
2024/02/27 12:10:42;;;;;;;;;;;10.00;90.90;;;;;;5017358;28;87055;-61
2024/02/27 12:13:08;;;;;;;;;;;10.10;90.90;;;;;;5013904;28;88088;-60
2024/02/27 12:15:33;;;;;;;;;;;10.10;90.70;;;;;;5014401;28;87435;-60
2024/02/27 12:17:59;;;;;;;;;;;10.10;90.80;;;;;;5015249;28;86942;-59
2024/02/27 12:20:24;;;;;;;;;;;10.10;90.90;;;;;;5015553;28;88495;-60
2024/02/27 12:22:50;;;;;;;;;;;10.10;90.80;;;;;;5017415;28;87982;-60
2024/02/27 12:25:16;;;;;;;;;;;10.20;91.00;;;;;;5009221;28;87880;-60
2024/02/27 12:27:44;;;;;;;;;;;10.20;90.90;;;;;;5011520;28;87687;-60
2024/02/27 12:30:10;;;;;;;;;;;10.20;91.00;;;;;;5012806;28;86961;-60
2024/02/27 12:32:42;;;;;;;;;;;10.20;91.10;;;;;;5018286;28;86806;-60
2024/02/27 12:35:09;;;;;;;;;;;10.20;91.00;;;;;;5009914;28;88475;-59
2024/02/27 12:37:48;;;;;;;;;;;10.20;91.00;;;;;;5016185;28;87061;-61
2024/02/27 12:40:15;;;;;;;;;;;10.20;91.10;;;;;;5018578;28;86797;-61
2024/02/27 12:42:41;;;;;;;;;;;10.20;91.00;;;;;;5017078;28;87453;-60
2024/02/27 12:45:09;;;;;;;;;;;10.30;91.00;;;;;;5014172;28;87119;-60
2024/02/27 12:47:35;;;;;;;;;;;10.30;91.00;;;;;;5016534;28;89653;-61
2024/02/27 12:50:00;;;;;;;;;;;10.30;91.00;;;;;;5017261;28;86970;-60
2024/02/27 12:52:26;;;;;;;;;;;10.30;91.00;;;;;;5015936;28;87019;-60
2024/02/27 12:54:52;;;;;;;;;;;10.40;91.00;;;;;;5010873;28;90027;-60
2024/02/27 12:57:17;;;;;;;;;;;10.40;91.00;;;;;;5017063;28;88123;-60
2024/02/27 12:59:43;;;;;;;;;;;10.40;90.90;;;;;;5017822;28;86960;-61
2024/02/27 13:02:09;;;;;;;;;;;10.40;90.90;;;;;;5018601;28;87083;-60
2024/02/27 13:04:36;;;;;;;;;;;10.50;90.80;;;;;;5009176;28;89391;-60
2024/02/27 13:07:01;;;;;;;;;;;10.50;90.90;;;;;;5017018;28;87617;-60
2024/02/27 13:09:27;;;;;;;;;;;10.50;90.90;;;;;;5024906;28;86843;-60
2024/02/27 13:11:53;;;;;;;;;;;10.50;90.80;;;;;;5019688;28;88394;-59
2024/02/27 13:14:18;;;;;;;;;;;10.50;90.90;;;;;;5015293;28;87721;-60
2024/02/27 13:16:44;;;;;;;;;;;10.50;91.00;;;;;;5015466;28;87702;-60
2024/02/27 13:19:09;;;;;;;;;;;10.60;91.00;;;;;;5019788;28;87012;-60
2024/02/27 13:21:35;;;;;;;;;;;10.60;90.90;;;;;;5018614;28;87521;-61
2024/02/27 13:24:04;;;;;;;;;;;10.60;90.90;;;;;;5012708;28;88590;-59
2024/02/27 13:26:30;;;;;;;;;;;10.60;90.90;;;;;;5019600;28;90213;-61
2024/02/27 13:28:55;;;;;;;;;;;10.60;90.90;;;;;;5016571;28;87718;-60
2024/02/27 13:31:21;;;;;;;;;;;10.60;90.90;;;;;;5014035;28;88320;-61
2024/02/27 13:33:47;;;;;;;;;;;10.70;90.70;;;;;;5009288;28;86982;-61
2024/02/27 13:36:12;;;;;;;;;;;10.70;90.90;;;;;;5010140;28;88070;-61
2024/02/27 13:38:38;;;;;;;;;;;10.70;91.00;;;;;;5014404;28;87933;-61
2024/02/27 13:41:03;;;;;;;;;;;10.70;90.90;;;;;;5015381;28;87881;-58
2024/02/27 13:43:29;;;;;;;;;;;10.70;90.80;;;;;;5014813;28;87767;-61
2024/02/27 13:45:56;;;;;;;;;;;10.80;90.80;;;;;;5016805;28;87442;-60
2024/02/27 13:48:21;;;;;;;;;;;10.80;90.70;;;;;;5016760;28;87196;-61
2024/02/27 13:50:47;;;;;;;;;;;10.80;90.80;;;;;;5015826;28;87088;-61
2024/02/27 13:53:14;;;;;;;;;;;10.80;90.90;;;;;;5012598;28;87495;-60
2024/02/27 13:55:40;;;;;;;;;;;10.90;90.90;;;;;;5010938;28;86974;-60
2024/02/27 13:58:05;;;;;;;;;;;10.90;90.90;;;;;;5015325;28;86966;-60
2024/02/27 14:00:31;;;;;;;;;;;10.90;90.90;;;;;;5008973;28;87697;-59
2024/02/27 14:02:56;;;;;;;;;;;10.90;90.90;;;;;;5013362;28;87060;-60
2024/02/27 14:05:22;;;;;;;;;;;11.00;91.00;;;;;;5017930;28;86938;-61
2024/02/27 14:07:50;;;;;;;;;;;10.90;91.00;;;;;;5016387;28;87165;-61
2024/02/27 14:10:16;;;;;;;;;;;11.00;91.10;;;;;;5015519;28;87433;-60
2024/02/27 14:12:42;;;;;;;;;;;11.00;91.30;;;;;;5014428;28;88114;-61
2024/02/27 14:15:08;;;;;;;;;;;11.00;91.00;;;;;;5011510;28;86952;-61
2024/02/27 14:17:34;;;;;;;;;;;11.00;91.00;;;;;;5018649;28;86832;-61
2024/02/27 14:20:00;;;;;;;;;;;11.00;91.10;;;;;;5014177;28;87556;-61
2024/02/27 14:22:27;;;;;;;;;;;11.10;90.90;;;;;;5008360;28;87288;-61